LIPH Airport Information

Runway Information
Runway 07 Length 7941 ft width 144 ft
Elevation 56 ft Threshold 254 ft Heading 69
Runway 25 Length 7941 ft Width 144 ft
Elevation 51 ft Threshold 389 ft Heading 249
Airport Frequencies
Type APP Name APP Frequency 36.23 MHZ
Type APP Name APP Frequency 120.4 MHZ
Type GND Name GND Frequency 27.917 MHZ
Type INFO Name PADOVA INF Frequency 124.15 MHZ
Type TWR Name TWR Frequency 118.7 MHZ
Airport Navaids
Type NDB Name Treviso Frequency 302 KHZ
Airport Weather Information & NOTAM
ADDS - METARS form results

(0803 UTC 22 May 2018)
 
METAR text: LIPH 220750Z 32005KT 290V350 7000 RA BKN050 17/15 Q1014
Conditions at: LIPH (TREVISO(CIV/IT-A, IT) observed 0750 UTC 22 May 2018
Temperature: 17.0°C (63°F)
Dewpoint: 15.0°C (59°F) [RH = 88%]
Pressure (altimeter): 29.94 inches Hg (1014.0 mb)
Winds: from the NW (320 degrees) at 6 MPH (5 knots; 2.6 m/s)
Visibility: 4 miles (7 km)
Ceiling: 5000 feet AGL
Clouds: broken clouds at 5000 feet AGL
Weather: RA  (rain)

METAR text: LIPH 220720Z 33004KT 9999 RA BKN050 17/15 Q1014
Conditions at: LIPH (TREVISO(CIV/IT-A, IT) observed 0720 UTC 22 May 2018
Temperature: 17.0°C (63°F)
Dewpoint: 15.0°C (59°F) [RH = 88%]
Pressure (altimeter): 29.94 inches Hg (1014.0 mb)
Winds: from the NNW (330 degrees) at 5 MPH (4 knots; 2.1 m/s)
Visibility: 6 or more miles (10+ km)
Ceiling: 5000 feet AGL
Clouds: broken clouds at 5000 feet AGL
Weather: RA  (rain)